Time;durP1;ratioP1;P1;durP2;ratioP2;P2;SDS_P1;SDS_P2;PMS_P1;PMS_P2;Temp;Humidity;BMP_temperature;BMP_pressure;BME280_temperature;BME280_humidity;BME280_pressure;Samples;Min_cycle;Max_cycle;Signal;HPM_P1;HPM_P2
2021/07/29 00:01:39;;;;;;;;;4.25;3.25;;;;;24.36;40.87;101009.09;4997675;28;51522;-55
2021/07/29 00:04:04;;;;;;;;;4.25;1.00;;;;;24.34;41.12;101011.25;4995328;28;51101;-56
2021/07/29 00:06:30;;;;;;;;;2.25;2.25;;;;;24.33;40.88;101008.75;4993287;28;51083;-55
2021/07/29 00:08:55;;;;;;;;;3.00;1.50;;;;;24.32;41.38;101015.38;4996742;28;51113;-55
2021/07/29 00:11:21;;;;;;;;;1.00;1.00;;;;;24.30;40.98;101021.13;4994161;28;51738;-54
2021/07/29 00:13:46;;;;;;;;;3.00;2.00;;;;;24.29;41.15;101015.81;4993922;28;51091;-55
2021/07/29 00:16:12;;;;;;;;;2.00;1.75;;;;;24.29;41.22;101015.81;4994331;28;52906;-53
2021/07/29 00:21:21;;;;;;;;;3.25;3.25;;;;;24.25;41.41;101015.44;4996880;28;51613;-56
2021/07/29 00:23:49;;;;;;;;;2.00;2.00;;;;;24.24;41.64;101013.78;4997050;28;51171;-56
2021/07/29 00:26:15;;;;;;;;;1.75;1.75;;;;;24.24;41.21;101010.16;4996956;28;51171;-56
2021/07/29 00:28:40;;;;;;;;;2.00;2.00;;;;;24.23;41.25;101014.03;4997244;28;51155;-54
2021/07/29 00:31:05;;;;;;;;;2.00;2.00;;;;;24.21;41.29;101007.91;4998768;28;57853;-56
2021/07/29 00:33:31;;;;;;;;;3.00;1.75;;;;;24.20;41.58;101001.53;5011728;28;52570;-53
2021/07/29 00:35:56;;;;;;;;;3.50;3.00;;;;;24.17;41.86;101010.28;5000130;28;58336;-54
2021/07/29 00:38:21;;;;;;;;;3.00;2.00;;;;;24.17;41.63;101004.75;4996300;28;55717;-53
2021/07/29 00:40:48;;;;;;;;;2.00;2.00;;;;;24.16;41.43;101017.75;4992336;28;59004;-53
2021/07/29 00:43:15;;;;;;;;;2.00;2.00;;;;;24.13;41.63;100998.88;4997154;28;51255;-56
2021/07/29 00:45:41;;;;;;;;;4.00;4.00;;;;;24.12;41.85;101002.72;5003004;28;51194;-55
2021/07/29 00:48:06;;;;;;;;;1.50;1.50;;;;;24.11;41.86;101012.13;4997697;28;51295;-55
2021/07/29 00:50:32;;;;;;;;;2.00;2.00;;;;;24.09;42.08;101008.75;5001613;28;57029;-55
2021/07/29 00:52:57;;;;;;;;;3.00;3.00;;;;;24.09;41.86;101013.44;4997964;28;51054;-54
2021/07/29 00:55:23;;;;;;;;;4.25;3.75;;;;;24.08;41.88;101012.63;4999519;28;51509;-53
2021/07/29 00:57:48;;;;;;;;;3.00;3.00;;;;;24.05;42.02;101007.53;4997917;28;51023;-55
2021/07/29 01:00:14;;;;;;;;;4.00;3.00;;;;;24.04;42.18;101005.00;5005621;28;51604;-55
2021/07/29 01:02:39;;;;;;;;;3.50;2.00;;;;;24.04;42.05;101005.00;5003491;28;51309;-55
2021/07/29 01:05:06;;;;;;;;;5.50;3.00;;;;;24.03;42.36;101004.19;5002249;28;51147;-54
2021/07/29 01:07:31;;;;;;;;;2.00;2.00;;;;;24.01;42.30;101005.50;5004226;28;50987;-55
2021/07/29 01:09:57;;;;;;;;;3.00;3.00;;;;;24.00;42.33;101004.66;5000539;28;51585;-56
2021/07/29 01:12:22;;;;;;;;;2.00;2.00;;;;;23.99;42.24;101004.91;4997238;28;50877;-55
2021/07/29 01:14:47;;;;;;;;;2.75;2.00;;;;;23.98;42.47;101009.63;4997275;28;51127;-56
2021/07/29 01:17:13;;;;;;;;;5.50;4.00;;;;;23.96;42.23;101003.44;4997265;28;51354;-55
2021/07/29 01:19:38;;;;;;;;;3.00;1.25;;;;;23.95;42.04;101007.31;4999253;28;51630;-56
2021/07/29 01:22:03;;;;;;;;;2.75;2.75;;;;;23.95;42.69;101015.59;4997295;28;51107;-54
2021/07/29 01:24:29;;;;;;;;;5.50;3.50;;;;;23.94;42.43;101015.84;4996960;28;51060;-56
2021/07/29 01:26:54;;;;;;;;;4.25;3.00;;;;;23.93;42.63;101015.00;4997970;28;51068;-56
2021/07/29 01:29:20;;;;;;;;;2.00;2.00;;;;;23.92;42.69;101021.63;5001573;28;51028;-55
2021/07/29 01:31:46;;;;;;;;;3.00;3.00;;;;;23.89;42.40;101014.66;4979328;28;51148;-55
2021/07/29 01:34:11;;;;;;;;;2.50;2.00;;;;;23.89;42.43;101020.19;4996513;28;51276;-54
2021/07/29 01:36:36;;;;;;;;;2.50;2.50;;;;;23.89;42.89;101025.72;4997197;28;51069;-56
2021/07/29 01:39:03;;;;;;;;;5.00;3.00;;;;;23.88;42.77;101017.69;5001460;28;51136;-56
2021/07/29 01:41:28;;;;;;;;;2.00;2.00;;;;;23.87;42.43;101016.00;4997104;28;51466;-54
2021/07/29 01:43:53;;;;;;;;;3.50;3.00;;;;;23.85;42.44;101020.91;4999233;28;51015;-56
2021/07/29 01:46:19;;;;;;;;;4.00;3.00;;;;;23.84;42.67;101017.28;5001672;28;51103;-54
2021/07/29 01:48:44;;;;;;;;;2.00;2.00;;;;;23.83;42.92;101034.13;5001975;28;51767;-56
2021/07/29 01:51:09;;;;;;;;;2.25;2.00;;;;;23.81;42.98;101023.31;4997884;28;50937;-56
2021/07/29 01:53:34;;;;;;;;;3.00;2.50;;;;;23.81;43.09;101028.00;4996513;28;51067;-56
2021/07/29 01:56:00;;;;;;;;;1.75;1.75;;;;;23.80;43.11;101021.63;5002356;28;51042;-55
2021/07/29 01:58:25;;;;;;;;;3.00;3.00;;;;;23.80;43.11;101023.56;4996303;28;51713;-57
2021/07/29 02:00:51;;;;;;;;;4.00;3.00;;;;;23.77;42.96;101030.44;4998381;28;51134;-54
2021/07/29 02:03:17;;;;;;;;;2.00;2.00;;;;;23.78;42.76;101022.97;5003637;28;50932;-53
2021/07/29 02:05:42;;;;;;;;;3.75;3.75;;;;;23.74;43.17;101022.59;4998090;28;51277;-56
2021/07/29 02:08:08;;;;;;;;;4.50;2.00;;;;;23.75;42.70;101024.25;4996634;28;50976;-54
2021/07/29 02:10:33;;;;;;;;;2.00;2.00;;;;;23.74;43.06;101030.03;4996709;28;51027;-56
2021/07/29 02:13:00;;;;;;;;;2.00;2.00;;;;;23.72;42.70;101026.69;4996885;28;51394;-55
2021/07/29 02:15:26;;;;;;;;;1.75;1.75;;;;;23.70;43.13;101024.16;5003366;28;51242;-55
2021/07/29 02:17:55;;;;;;;;;2.00;2.00;;;;;23.70;43.07;101026.09;5001956;28;51960;-55
2021/07/29 02:20:20;;;;;;;;;2.50;2.50;;;;;23.69;43.25;101013.34;4999634;28;51233;-54
2021/07/29 02:22:46;;;;;;;;;4.50;3.00;;;;;23.68;43.09;101017.19;4996400;28;51266;-56
2021/07/29 02:25:12;;;;;;;;;2.75;2.00;;;;;23.66;43.50;101011.91;4996557;28;50969;-55
2021/07/29 02:27:37;;;;;;;;;2.75;2.75;;;;;23.65;43.23;101026.78;4996151;28;51614;-56
2021/07/29 02:30:03;;;;;;;;;2.75;2.75;;;;;23.64;43.64;101025.09;4998129;28;51142;-56
2021/07/29 02:32:28;;;;;;;;;3.25;3.25;;;;;23.63;43.38;101019.81;4996483;28;51153;-54
2021/07/29 02:34:54;;;;;;;;;3.25;2.50;;;;;23.61;43.43;101023.66;5001554;28;51051;-55
2021/07/29 02:37:20;;;;;;;;;3.75;2.25;;;;;23.60;43.59;101024.75;4997289;28;52064;-54
2021/07/29 02:39:46;;;;;;;;;2.50;2.00;;;;;23.60;43.44;101027.50;5001327;28;51547;-55
2021/07/29 02:42:11;;;;;;;;;2.00;1.50;;;;;23.60;43.30;101029.44;4998779;28;51208;-56
2021/07/29 02:44:37;;;;;;;;;5.25;3.00;;;;;23.58;43.59;101029.69;4995139;28;51310;-53
2021/07/29 02:47:03;;;;;;;;;2.00;2.00;;;;;23.57;43.64;101041.78;4995878;28;51157;-54
2021/07/29 02:49:29;;;;;;;;;4.50;1.75;;;;;23.57;43.41;101035.41;4997228;28;51110;-54
2021/07/29 02:51:54;;;;;;;;;4.00;2.75;;;;;23.56;43.87;101042.88;4996086;28;51376;-56
2021/07/29 02:54:19;;;;;;;;;3.25;1.75;;;;;23.55;43.37;101029.25;4996287;28;51091;-55
2021/07/29 02:56:46;;;;;;;;;4.00;4.00;;;;;23.55;43.55;101032.91;4995553;28;51524;-55
2021/07/29 02:59:11;;;;;;;;;1.75;1.75;;;;;23.53;43.73;101026.75;4995804;28;51039;-55
2021/07/29 03:01:36;;;;;;;;;3.75;3.00;;;;;23.52;43.71;101036.13;5005018;28;51085;-56
2021/07/29 03:04:02;;;;;;;;;2.50;2.50;;;;;23.51;43.49;101039.13;5002331;28;51334;-55
2021/07/29 03:06:27;;;;;;;;;3.00;3.00;;;;;23.52;43.74;101038.88;4995561;28;51274;-53
2021/07/29 03:08:53;;;;;;;;;1.50;1.00;;;;;23.51;43.95;101039.13;5000938;28;51051;-55
2021/07/29 03:11:19;;;;;;;;;3.00;2.50;;;;;23.51;43.53;101050.19;5003704;28;50978;-54
2021/07/29 03:13:44;;;;;;;;;2.50;1.00;;;;;23.49;43.51;101050.44;4995724;28;50904;-54
2021/07/29 03:16:10;;;;;;;;;2.25;2.00;;;;;23.48;43.72;101054.28;4995964;28;50969;-55
2021/07/29 03:18:35;;;;;;;;;1.50;1.50;;;;;23.48;43.89;101059.81;4995804;28;51133;-56
2021/07/29 03:21:00;;;;;;;;;3.25;3.00;;;;;23.47;43.48;101060.88;5010276;28;51146;-54
2021/07/29 03:23:27;;;;;;;;;1.00;1.00;;;;;23.45;43.53;101063.06;4996105;28;50890;-56
2021/07/29 03:25:53;;;;;;;;;3.75;2.00;;;;;23.44;44.23;101060.50;4995488;28;51124;-56
2021/07/29 03:28:19;;;;;;;;;1.00;1.00;;;;;23.43;43.92;101056.91;4995850;28;51274;-55
2021/07/29 03:30:46;;;;;;;;;2.00;2.00;;;;;23.41;43.61;101048.00;5004806;28;51195;-54
2021/07/29 03:33:11;;;;;;;;;1.50;1.50;;;;;23.42;44.27;101049.69;5000179;28;51178;-54
2021/07/29 03:35:40;;;;;;;;;2.00;2.00;;;;;23.40;43.97;101046.31;4994929;28;51927;-56
2021/07/29 03:38:07;;;;;;;;;2.50;2.50;;;;;23.39;43.91;101041.03;4995612;28;51066;-56
2021/07/29 03:40:34;;;;;;;;;3.75;2.00;;;;;23.38;43.86;101044.88;4995309;28;51144;-54
2021/07/29 03:43:02;;;;;;;;;2.00;2.00;;;;;23.36;43.68;101045.13;4996256;28;51035;-54
2021/07/29 03:45:31;;;;;;;;;2.50;2.25;;;;;23.36;44.18;101058.94;4994930;28;51164;-54
2021/07/29 03:47:58;;;;;;;;;2.50;1.75;;;;;23.35;44.45;101060.03;4995408;28;50996;-53
2021/07/29 03:50:24;;;;;;;;;2.75;2.00;;;;;23.35;44.20;101053.66;4995578;28;51149;-52
2021/07/29 03:52:49;;;;;;;;;1.75;1.75;;;;;23.34;43.93;101066.59;5003298;28;51307;-55
2021/07/29 03:55:15;;;;;;;;;3.00;3.00;;;;;23.32;44.46;101060.47;4998444;28;51202;-55
2021/07/29 03:57:40;;;;;;;;;2.00;2.00;;;;;23.31;44.29;101061.56;4998804;28;51122;-54
2021/07/29 04:00:07;;;;;;;;;3.00;2.00;;;;;23.31;44.41;101058.78;5001501;28;52611;-55
2021/07/29 04:02:33;;;;;;;;;1.75;1.50;;;;;23.31;44.36;101061.56;4994619;28;51122;-54
2021/07/29 04:04:59;;;;;;;;;1.00;1.00;;;;;23.29;44.33;101070.09;4997959;28;52178;-54
2021/07/29 04:07:24;;;;;;;;;1.50;1.50;;;;;23.29;44.64;101058.19;4998694;28;51411;-54
2021/07/29 04:09:50;;;;;;;;;2.00;2.00;;;;;23.28;44.20;101070.31;4998444;28;51170;-55
2021/07/29 04:12:16;;;;;;;;;4.25;3.00;;;;;23.27;44.71;101069.47;4998372;28;51183;-56
2021/07/29 04:14:42;;;;;;;;;1.50;1.50;;;;;23.27;44.09;101063.13;5002894;28;52589;-54
2021/07/29 04:17:08;;;;;;;;;2.50;1.75;;;;;23.26;44.18;101067.81;4998314;28;51051;-55
2021/07/29 04:19:33;;;;;;;;;2.00;2.00;;;;;23.25;44.43;101068.88;5006291;28;51185;-55
2021/07/29 04:22:00;;;;;;;;;2.75;2.25;;;;;23.24;44.43;101069.97;4998936;28;51053;-52
2021/07/29 04:24:29;;;;;;;;;4.25;2.25;;;;;23.23;44.29;101071.00;4997754;28;51881;-54
2021/07/29 04:26:58;;;;;;;;;2.00;1.50;;;;;23.22;44.75;101065.72;4998402;28;50980;-55
2021/07/29 04:29:27;;;;;;;;;2.75;2.00;;;;;23.21;44.24;101078.72;4997924;28;51296;-54
2021/07/29 04:31:53;;;;;;;;;4.00;2.00;;;;;23.20;44.30;101068.72;5008289;28;51043;-53
2021/07/29 04:34:19;;;;;;;;;2.50;2.25;;;;;23.20;44.86;101070.66;4997246;28;51174;-52
2021/07/29 04:36:45;;;;;;;;;2.50;2.00;;;;;23.20;44.90;101073.41;4997743;28;51156;-55
2021/07/29 04:39:10;;;;;;;;;2.00;2.00;;;;;23.20;44.84;101073.41;4998154;28;51246;-53
2021/07/29 04:41:41;;;;;;;;;2.75;2.50;;;;;23.18;44.96;101067.28;5005762;28;51115;-53
2021/07/29 04:44:08;;;;;;;;;2.00;1.75;;;;;23.17;44.69;101073.91;5005792;28;51212;-54
2021/07/29 04:46:38;;;;;;;;;2.00;2.00;;;;;23.16;44.28;101063.94;5002082;28;51269;-53
2021/07/29 04:49:04;;;;;;;;;4.25;2.75;;;;;23.15;44.92;101073.28;4997826;28;51092;-54
2021/07/29 04:51:31;;;;;;;;;6.25;1.75;;;;;23.14;44.81;101071.63;5000329;28;51279;-53
2021/07/29 04:53:56;;;;;;;;;3.25;2.50;;;;;23.14;45.11;101072.44;4997852;28;52065;-53
2021/07/29 04:56:22;;;;;;;;;2.25;2.25;;;;;23.12;45.12;101070.97;4998679;28;51299;-52
2021/07/29 04:58:49;;;;;;;;;2.00;2.00;;;;;23.12;45.08;101074.59;4998149;28;51142;-55
2021/07/29 05:01:18;;;;;;;;;3.00;3.00;;;;;23.12;44.72;101077.34;5004383;28;51140;-53
2021/07/29 05:03:44;;;;;;;;;3.00;3.00;;;;;23.12;44.79;101074.59;4996656;28;51969;-54
2021/07/29 05:06:09;;;;;;;;;3.25;3.00;;;;;23.11;44.92;101072.06;4997831;28;51055;-53
2021/07/29 05:08:35;;;;;;;;;3.25;2.75;;;;;23.11;45.39;101075.66;4998034;28;51172;-53
2021/07/29 05:11:04;;;;;;;;;2.50;2.00;;;;;23.10;45.24;101076.75;5012120;28;51307;-52
2021/07/29 05:13:29;;;;;;;;;4.00;3.00;;;;;23.10;45.02;101078.66;4996155;28;51070;-52
2021/07/29 05:15:55;;;;;;;;;2.75;2.75;;;;;23.10;45.20;101079.50;5001256;28;51031;-54
2021/07/29 05:18:20;;;;;;;;;3.00;3.00;;;;;23.10;45.02;101081.44;4997410;28;51161;-52
2021/07/29 05:20:46;;;;;;;;;2.50;1.75;;;;;23.08;45.18;101078.91;4999356;28;51066;-54
2021/07/29 05:23:12;;;;;;;;;2.75;2.75;;;;;23.07;44.96;101077.22;5003012;28;51085;-54
2021/07/29 05:25:38;;;;;;;;;2.00;1.50;;;;;23.07;44.73;101079.16;4989549;28;51668;-54
2021/07/29 05:28:03;;;;;;;;;2.00;2.00;;;;;23.06;44.77;101088.50;4997514;28;51173;-52
2021/07/29 05:30:29;;;;;;;;;5.50;3.75;;;;;23.06;44.96;101085.75;5002113;28;51200;-55
2021/07/29 05:32:54;;;;;;;;;1.50;1.50;;;;;23.03;45.24;101085.16;4997183;28;51141;-53
2021/07/29 05:35:19;;;;;;;;;6.00;3.50;;;;;23.06;44.95;101091.28;4994472;28;51145;-54
2021/07/29 05:37:45;;;;;;;;;4.25;2.25;;;;;23.04;45.16;101089.59;4997830;28;53542;-52
2021/07/29 05:40:10;;;;;;;;;4.50;2.50;;;;;23.06;44.79;101091.28;4994627;28;51035;-52
2021/07/29 05:42:36;;;;;;;;;3.75;2.75;;;;;23.04;45.02;101092.34;4997442;28;51177;-55
2021/07/29 05:45:02;;;;;;;;;2.50;2.50;;;;;23.03;44.85;101096.19;5001181;28;51214;-54
2021/07/29 05:47:27;;;;;;;;;3.75;1.25;;;;;23.02;45.17;101112.97;4992195;28;50976;-52
2021/07/29 05:49:53;;;;;;;;;2.25;2.00;;;;;23.00;45.00;101099.41;5001089;28;51275;-53
2021/07/29 05:52:19;;;;;;;;;3.00;3.00;;;;;22.99;45.50;101096.88;4996251;28;51825;-52
2021/07/29 05:54:44;;;;;;;;;1.50;1.50;;;;;22.97;45.17;101105.41;4996379;28;51127;-54
2021/07/29 05:57:09;;;;;;;;;3.00;3.00;;;;;22.96;45.28;101102.88;4998450;28;51083;-53
2021/07/29 05:59:34;;;;;;;;;2.00;2.00;;;;;22.95;45.24;101096.50;4996303;28;50947;-54
2021/07/29 06:02:00;;;;;;;;;3.50;3.00;;;;;22.93;45.19;101098.66;4995014;28;53020;-54
2021/07/29 06:04:25;;;;;;;;;4.25;1.50;;;;;22.94;47.99;101091.22;4989627;28;51853;-55
2021/07/29 06:06:50;;;;;;;;;2.00;2.00;;;;;22.96;46.43;101092.66;4994262;28;51177;-54
2021/07/29 06:09:16;;;;;;;;;3.75;2.75;;;;;22.99;46.04;101097.72;4996094;28;51258;-52
2021/07/29 06:11:41;;;;;;;;;5.25;4.00;;;;;23.02;46.58;101097.25;4994370;28;51256;-55
2021/07/29 06:14:06;;;;;;;;;5.00;5.00;;;;;23.03;47.18;101100.84;4993029;28;50984;-55
2021/07/29 06:16:32;;;;;;;;;4.00;2.75;;;;;23.07;46.67;101104.00;4994089;28;51220;-56
2021/07/29 06:19:17;;;;;;;;;2.75;2.75;;;;;23.12;46.53;101117.94;4994811;28;51696;-54
2021/07/29 06:21:42;;;;;;;;;1.50;1.50;;;;;23.13;46.66;101103.91;4994404;28;51163;-55
2021/07/29 06:24:08;;;;;;;;;3.00;2.00;;;;;23.15;46.40;101100.94;4997128;28;51087;-54
2021/07/29 06:26:33;;;;;;;;;6.50;3.00;;;;;23.17;46.50;101113.44;4997609;28;51271;-54
2021/07/29 06:28:59;;;;;;;;;3.00;3.00;;;;;23.19;47.27;101113.19;5003081;28;51051;-54
2021/07/29 06:31:25;;;;;;;;;3.25;3.25;;;;;23.22;47.44;101119.09;4992100;28;51913;-55
2021/07/29 06:33:50;;;;;;;;;3.00;3.00;;;;;23.25;47.20;101120.56;4991010;28;51142;-57
2021/07/29 06:36:16;;;;;;;;;5.75;3.50;;;;;23.27;47.39;101126.69;4994430;28;51235;-54
2021/07/29 06:38:41;;;;;;;;;3.25;3.00;;;;;23.30;47.35;101126.22;4994004;28;51117;-53
2021/07/29 06:41:07;;;;;;;;;2.50;2.00;;;;;23.33;47.06;101125.72;4990976;28;51671;-56
2021/07/29 06:43:34;;;;;;;;;4.75;4.75;;;;;23.35;46.73;101114.47;4993566;28;51172;-55
2021/07/29 06:46:06;;;;;;;;;4.25;2.25;;;;;23.37;47.20;101120.59;4993201;28;51505;-55
2021/07/29 06:48:32;;;;;;;;;4.75;2.00;;;;;23.36;47.03;101119.75;4992956;28;51143;-52
2021/07/29 06:51:05;;;;;;;;;5.00;3.75;;;;;23.39;46.75;101127.56;4991987;28;51151;-53
2021/07/29 06:53:31;;;;;;;;;3.50;2.50;;;;;23.42;46.83;101129.84;4994670;28;51179;-55
2021/07/29 06:56:00;;;;;;;;;4.00;2.00;;;;;23.43;46.90;101131.53;4994837;28;50995;-52
2021/07/29 06:58:26;;;;;;;;;2.00;2.00;;;;;23.45;46.91;101136.84;4996302;28;51257;-51
2021/07/29 07:00:51;;;;;;;;;5.00;3.00;;;;;23.47;46.40;101141.06;4994796;28;50996;-54
2021/07/29 07:03:16;;;;;;;;;5.00;3.75;;;;;23.48;46.55;101136.38;5009383;28;51379;-54
2021/07/29 07:05:45;;;;;;;;;3.50;3.25;;;;;23.49;46.09;101147.19;4994265;28;51561;-54
2021/07/29 07:08:14;;;;;;;;;3.00;3.00;;;;;23.48;46.11;101145.50;4994704;28;51064;-52
2021/07/29 07:10:40;;;;;;;;;3.50;3.00;;;;;23.48;46.35;101141.91;4997565;28;52072;-55
2021/07/29 07:13:06;;;;;;;;;4.25;3.00;;;;;23.48;46.27;101151.03;4994300;28;51379;-52
2021/07/29 07:15:31;;;;;;;;;3.50;3.00;;;;;23.49;45.94;101146.34;4993854;28;51225;-55
2021/07/29 07:17:57;;;;;;;;;2.50;2.50;;;;;23.49;46.13;101149.97;4995113;28;51312;-51
2021/07/29 07:20:26;;;;;;;;;2.25;2.25;;;;;23.51;45.80;101160.78;4994068;28;51263;-50
2021/07/29 07:22:52;;;;;;;;;2.75;2.00;;;;;23.50;45.58;101154.41;4995658;28;51011;-53
2021/07/29 07:25:18;;;;;;;;;3.00;3.00;;;;;23.51;45.48;101161.63;4994178;28;51249;-51
2021/07/29 07:27:44;;;;;;;;;4.00;3.75;;;;;23.51;45.10;101163.53;4998059;28;51286;-54
2021/07/29 07:30:09;;;;;;;;;2.00;2.00;;;;;23.52;45.45;101168.00;4993590;28;51478;-55
2021/07/29 07:32:35;;;;;;;;;3.25;2.25;;;;;23.52;45.26;101163.31;4997521;28;51110;-54
2021/07/29 07:35:02;;;;;;;;;3.75;2.75;;;;;23.53;45.25;101153.94;4994046;28;51349;-54
2021/07/29 07:37:27;;;;;;;;;4.50;3.00;;;;;23.53;45.17;101151.16;4997248;28;51202;-52
2021/07/29 07:39:52;;;;;;;;;5.75;2.25;;;;;23.54;44.91;101155.63;4992794;28;51198;-55
2021/07/29 07:42:18;;;;;;;;;3.25;3.25;;;;;23.54;45.37;101161.16;4993417;28;51545;-53
2021/07/29 07:44:43;;;;;;;;;3.75;3.75;;;;;23.54;45.24;101155.63;4994091;28;51187;-53
2021/07/29 07:47:08;;;;;;;;;2.75;2.75;;;;;23.56;44.88;101161.78;4996757;28;51114;-50
2021/07/29 07:49:34;;;;;;;;;7.00;4.00;;;;;23.57;45.08;101162.63;4993312;28;51047;-55
2021/07/29 07:52:00;;;;;;;;;5.00;4.00;;;;;23.56;45.27;101159.00;4993621;28;51155;-52
2021/07/29 07:54:25;;;;;;;;;3.00;3.00;;;;;23.58;44.57;101158.78;4994281;28;51147;-55
2021/07/29 07:56:51;;;;;;;;;4.75;4.00;;;;;23.58;44.47;101150.47;4993802;28;51241;-55
2021/07/29 07:59:16;;;;;;;;;3.75;2.25;;;;;23.60;44.62;101163.00;4993300;28;53439;-53
2021/07/29 08:01:42;;;;;;;;;3.00;2.25;;;;;23.60;45.03;101145.59;4993074;28;51166;-55
2021/07/29 08:04:08;;;;;;;;;4.50;4.25;;;;;23.61;44.50;101156.41;4993885;28;51158;-54
2021/07/29 08:06:33;;;;;;;;;4.50;4.00;;;;;23.61;44.36;101150.88;4994079;28;51115;-54
2021/07/29 08:09:00;;;;;;;;;3.25;2.75;;;;;23.64;44.54;101154.25;4992792;28;50891;-55
2021/07/29 08:11:25;;;;;;;;;4.50;4.00;;;;;23.65;44.61;101158.69;4994130;28;51023;-54
2021/07/29 08:13:51;;;;;;;;;4.00;3.75;;;;;23.66;44.17;101160.41;4993652;28;51429;-55
2021/07/29 08:16:16;;;;;;;;;4.00;4.00;;;;;23.67;44.16;101164.84;4993660;28;50983;-53
2021/07/29 08:18:41;;;;;;;;;4.50;2.00;;;;;23.67;44.28;101160.16;4992514;28;60940;-53
2021/07/29 08:21:09;;;;;;;;;5.50;4.00;;;;;23.67;44.01;101164.84;4993265;28;51073;-53
2021/07/29 08:23:34;;;;;;;;;3.00;3.00;;;;;23.67;43.92;101157.41;4995438;28;51103;-55
2021/07/29 08:25:59;;;;;;;;;2.25;2.25;;;;;23.68;44.16;101148.00;4993976;28;51069;-52
2021/07/29 08:28:24;;;;;;;;;3.00;3.00;;;;;23.69;44.10;101146.09;4993716;28;51053;-54
2021/07/29 08:30:51;;;;;;;;;4.00;3.50;;;;;23.69;43.76;101151.63;4993487;28;51083;-54
2021/07/29 08:33:17;;;;;;;;;3.25;3.25;;;;;23.70;43.83;101156.06;4994575;28;51071;-55
2021/07/29 08:35:42;;;;;;;;;3.00;3.00;;;;;23.71;43.71;101155.00;4992761;28;50980;-54
2021/07/29 08:38:08;;;;;;;;;3.25;2.50;;;;;23.71;43.40;101149.47;4994801;28;51729;-54
2021/07/29 08:40:34;;;;;;;;;5.50;3.00;;;;;23.72;44.21;101156.69;4997231;28;51066;-56
2021/07/29 08:42:59;;;;;;;;;3.75;3.00;;;;;23.74;43.51;101152.59;4996806;28;51434;-52
2021/07/29 08:45:26;;;;;;;;;2.00;2.00;;;;;23.73;43.42;101159.19;4997113;28;51006;-54
2021/07/29 08:47:56;;;;;;;;;4.00;4.00;;;;;23.73;43.66;101152.81;4996152;28;51462;-52
2021/07/29 08:50:23;;;;;;;;;3.00;3.00;;;;;23.74;43.89;101155.34;4996571;28;51341;-55
2021/07/29 08:52:50;;;;;;;;;6.00;3.75;;;;;23.73;43.77;101156.44;4996756;28;51172;-55
2021/07/29 08:55:16;;;;;;;;;3.00;3.00;;;;;23.73;43.31;101150.06;4997115;28;51317;-56
2021/07/29 08:57:42;;;;;;;;;3.25;2.25;;;;;23.74;43.12;101158.13;4996969;28;51799;-55
2021/07/29 09:00:10;;;;;;;;;5.25;3.75;;;;;23.75;43.29;101158.97;4996334;28;51049;-55
2021/07/29 09:02:36;;;;;;;;;2.75;2.75;;;;;23.73;43.04;101156.44;4996509;28;51166;-56
2021/07/29 09:05:07;;;;;;;;;3.00;2.25;;;;;23.74;43.18;101146.22;4995633;28;51201;-54
2021/07/29 09:07:33;;;;;;;;;3.00;3.00;;;;;23.73;42.95;101148.13;4996258;28;51696;-54
2021/07/29 09:09:58;;;;;;;;;3.75;2.00;;;;;23.75;42.88;101143.19;4996837;28;51125;-54
2021/07/29 09:12:25;;;;;;;;;4.00;2.75;;;;;23.75;43.05;101145.13;4996278;28;51443;-55
2021/07/29 09:14:53;;;;;;;;;5.00;3.50;;;;;23.76;42.46;101152.34;5000797;28;51352;-56
2021/07/29 09:17:20;;;;;;;;;3.00;3.00;;;;;23.76;42.31;101150.44;4998367;28;51941;-55
2021/07/29 09:19:50;;;;;;;;;3.50;3.50;;;;;23.78;42.13;101150.22;4995110;28;51165;-53
2021/07/29 09:22:22;;;;;;;;;3.00;3.00;;;;;23.79;41.92;101147.19;4993030;28;51175;-54
2021/07/29 09:25:07;;;;;;;;;4.00;2.75;;;;;23.80;41.56;101148.03;4995521;28;51531;-55
2021/07/29 09:27:39;;;;;;;;;2.75;2.50;;;;;23.82;41.96;101143.09;5010827;28;51223;-55
2021/07/29 09:30:16;;;;;;;;;4.00;3.75;;;;;23.83;41.86;101145.63;4996185;28;51405;-56
2021/07/29 09:33:12;;;;;;;;;2.75;2.25;;;;;23.84;41.72;101141.78;4996933;28;51091;-55
2021/07/29 09:35:38;;;;;;;;;2.00;2.00;;;;;23.86;41.26;101136.00;4995550;28;51277;-53
2021/07/29 09:38:06;;;;;;;;;4.00;4.00;;;;;23.85;41.58;101140.69;5000388;28;52188;-55
2021/07/29 09:40:41;;;;;;;;;3.75;2.75;;;;;23.86;41.43;101142.41;4998502;28;50984;-54
2021/07/29 09:43:09;;;;;;;;;3.00;3.00;;;;;23.88;41.44;101136.63;4995500;28;51256;-53
2021/07/29 09:45:34;;;;;;;;;2.75;2.25;;;;;23.89;40.73;101139.16;4988826;28;51144;-54
2021/07/29 09:48:00;;;;;;;;;3.00;3.00;;;;;23.90;40.87;101142.78;4995851;28;51786;-55
2021/07/29 09:50:25;;;;;;;;;4.00;1.25;;;;;23.91;40.77;101138.91;4992871;28;51151;-55
2021/07/29 09:52:53;;;;;;;;;5.00;3.75;;;;;23.92;40.77;101134.22;4996205;28;51054;-53
2021/07/29 09:55:20;;;;;;;;;3.50;2.00;;;;;23.93;40.66;101139.50;4995355;28;50996;-53
2021/07/29 09:57:46;;;;;;;;;4.00;2.50;;;;;23.95;40.74;101133.75;4991501;28;52480;-55
2021/07/29 10:00:12;;;;;;;;;3.00;3.00;;;;;23.96;40.92;101132.66;4994475;28;51145;-54
2021/07/29 10:02:38;;;;;;;;;2.75;2.50;;;;;23.97;40.73;101126.03;4994782;28;51102;-56
2021/07/29 10:05:05;;;;;;;;;4.75;4.75;;;;;23.97;41.38;101126.03;4987904;28;51449;-55
2021/07/29 10:07:37;;;;;;;;;4.25;2.25;;;;;23.98;41.24;101123.06;4994075;28;51504;-55
2021/07/29 10:10:05;;;;;;;;;3.00;2.75;;;;;24.00;41.61;101125.59;4998843;28;51066;-55
2021/07/29 10:12:32;;;;;;;;;2.00;2.00;;;;;24.01;41.58;101119.81;5001378;28;51202;-56
2021/07/29 10:15:00;;;;;;;;;3.00;3.00;;;;;24.03;41.31;101122.31;4989325;28;51458;-56
2021/07/29 10:17:34;;;;;;;;;1.00;1.00;;;;;24.04;41.36;101118.47;4993400;28;51224;-56
2021/07/29 10:20:11;;;;;;;;;3.00;3.00;;;;;24.08;41.37;101111.41;4993530;28;51269;-56
2021/07/29 10:22:37;;;;;;;;;1.00;1.00;;;;;24.10;41.04;101120.28;4990731;28;51246;-58
2021/07/29 10:25:02;;;;;;;;;2.75;2.75;;;;;24.12;40.94;101115.34;4991979;28;51201;-55
2021/07/29 10:27:28;;;;;;;;;3.75;3.00;;;;;24.15;40.47;101120.41;4985629;28;52001;-58
2021/07/29 10:30:19;;;;;;;;;4.00;4.00;;;;;24.18;40.02;101112.47;4987013;28;51055;-56
2021/07/29 10:32:52;;;;;;;;;3.00;1.75;;;;;24.20;39.78;101112.22;4992343;28;51644;-56
2021/07/29 10:35:29;;;;;;;;;2.25;2.25;;;;;24.23;39.45;101102.59;4995992;28;51065;-55
2021/07/29 10:37:55;;;;;;;;;3.00;3.00;;;;;24.25;39.16;101105.97;4994399;28;51806;-56
2021/07/29 10:40:32;;;;;;;;;3.00;2.50;;;;;24.26;39.27;101108.47;4996284;28;51353;-56
2021/07/29 10:43:23;;;;;;;;;3.50;3.00;;;;;24.28;39.22;101100.81;4990523;28;51145;-55
2021/07/29 10:45:54;;;;;;;;;4.00;4.00;;;;;24.29;38.69;101107.19;4986112;28;51512;-54
2021/07/29 10:48:44;;;;;;;;;4.75;4.00;;;;;24.31;38.77;101113.34;4991340;28;51176;-58
2021/07/29 10:51:15;;;;;;;;;5.00;5.00;;;;;24.31;38.80;101099.50;4988089;28;51455;-56
2021/07/29 10:53:43;;;;;;;;;4.00;4.00;;;;;24.32;38.52;101107.56;4992784;28;51327;-56
2021/07/29 10:56:11;;;;;;;;;5.00;3.25;;;;;24.33;38.53;101108.41;4991849;28;51518;-56
2021/07/29 10:58:41;;;;;;;;;5.25;3.50;;;;;24.35;38.59;101107.06;4985866;28;51962;-55
2021/07/29 11:01:06;;;;;;;;;4.50;4.00;;;;;24.35;38.49;101106.22;4993008;28;51524;-56
2021/07/29 11:03:32;;;;;;;;;3.00;3.00;;;;;24.36;38.48;101099.59;4995662;28;51155;-57
2021/07/29 11:06:09;;;;;;;;;5.00;4.00;;;;;24.37;38.42;101101.28;4994799;28;51089;-56
2021/07/29 11:08:34;;;;;;;;;3.00;3.00;;;;;24.38;38.41;101101.03;4989727;28;51870;-56
2021/07/29 11:11:01;;;;;;;;;6.00;4.75;;;;;24.41;38.56;101102.50;4995165;28;51098;-54
2021/07/29 11:13:30;;;;;;;;;4.00;4.00;;;;;24.41;38.50;101103.34;4995511;28;51127;-57
2021/07/29 11:16:00;;;;;;;;;3.25;3.25;;;;;24.43;38.88;101103.09;4995373;28;51324;-55
2021/07/29 11:18:26;;;;;;;;;4.00;4.00;;;;;24.44;38.86;101096.47;4995866;28;51921;-55
2021/07/29 11:20:52;;;;;;;;;4.00;4.00;;;;;24.44;38.93;101094.53;4990258;28;51273;-54
2021/07/29 11:23:37;;;;;;;;;4.75;4.75;;;;;24.47;39.45;101101.50;4994888;28;51353;-53
2021/07/29 11:26:04;;;;;;;;;3.50;3.50;;;;;24.47;39.21;101087.66;4997980;28;51478;-55